Kezdőlap
METAR-TAF:

METAR-TAF

Repülőterek :

Tri-Township Airport

Savanna, Illinois, Amerikai Egyesült Államok

földrajzi szélesség: 42-02-45N, földrajzi hosszúság: 090-06-28W, magasság: 188 m

Jelenlegi meteorológiai megfigyelések

A jelentés 23 perccel ezelõtt készült, 09:15 UTC
Szélcsend
Hőmérséklet 6°C
Páratartalom 93%
Légköri nyomás 1002 hPa
Látótávolság: 11.3 km
Szakadozott felhőzet 2700 lábon
Borult 3500 lábon

METAR: KSFY 090915Z AUTO 00000KT 7SM BKN027 OVC035 06/05 A2959 RMK AO2

Idő: 03:38 (09:38 UTC)


TAF: hiányzik

Meteorológiai megfigyelések és előrejelzések több, mint 4000 repülőtéren (METAR és TAF jelentéseket).

A térképen piros és sárga pontok jelzik az elérhető meteorológiai állomásokat.

Mozgassa az egeret a pont fölött, hogy megjelenjen az állomás neve.

Azután kattintson az időjárási megfigyelések és előrejelzések megtekintéséhez.

A térkép megváltoztatása: kattintson a fekete keresztel jelölt zöld gombra ráközelítéshez, a vonallal jelölt zöld gombra távolításhoz, vagy a zöld nyilakra a szomszédos térképek eléréséhez.


METAR-TAF: